Time;durP1;ratioP1;P1;durP2;ratioP2;P2;SDS_P1;SDS_P2;PMS_P1;PMS_P2;Temp;Humidity;BMP_temperature;BMP_pressure;BME280_temperature;BME280_humidity;BME280_pressure;Samples;Min_cycle;Max_cycle;Signal;HPM_P1;HPM_P2
2021/12/07 00:00:22;;;;;;;29.20;14.10;;;;;;;2.76;80.20;100314.56;105998;1272;69254;-73
2021/12/07 00:03:00;;;;;;;25.80;12.20;;;;;;;2.72;80.34;100313.03;105861;1270;74659;-73
2021/12/07 00:05:29;;;;;;;29.70;14.20;;;;;;;2.68;80.54;100317.52;106030;1272;62399;-72
2021/12/07 00:07:58;;;;;;;26.50;11.80;;;;;;;2.67;80.80;100324.79;106126;1266;60374;-72
2021/12/07 00:10:27;;;;;;;27.30;13.80;;;;;;;2.74;81.09;100324.13;105949;1269;72987;-72
2021/12/07 00:12:57;;;;;;;30.50;14.40;;;;;;;2.72;80.85;100319.90;106115;1269;69832;-73
2021/12/07 00:15:29;;;;;;;25.30;11.70;;;;;;;2.71;80.70;100319.95;106128;1269;69175;-76
2021/12/07 00:17:58;;;;;;;24.20;12.30;;;;;;;2.70;80.55;100320.36;105897;1271;71204;-75
2021/12/07 00:20:28;;;;;;;25.10;11.90;;;;;;;2.68;80.36;100332.64;105955;1272;60606;-78
2021/12/07 00:22:59;;;;;;;25.90;12.40;;;;;;;2.66;80.57;100324.01;106131;1270;61461;-77
2021/12/07 00:25:28;;;;;;;26.80;12.80;;;;;;;2.68;81.07;100322.69;106005;1269;75035;-76
2021/12/07 00:27:56;;;;;;;20.80;11.30;;;;;;;2.66;80.59;100333.59;106060;1272;72320;-76
2021/12/07 00:30:30;;;;;;;24.90;12.20;;;;;;;2.69;80.32;100341.91;106113;1270;69637;-76
2021/12/07 00:33:31;;;;;;;26.50;12.00;;;;;;;2.64;80.32;100336.45;105972;1272;71751;-74
2021/12/07 00:36:00;;;;;;;27.90;12.30;;;;;;;2.62;80.27;100342.38;106190;1268;61401;-75
2021/12/07 00:38:31;;;;;;;29.10;14.20;;;;;;;2.61;80.50;100347.05;106084;1269;60326;-76
2021/12/07 00:41:01;;;;;;;31.10;14.10;;;;;;;2.57;80.68;100338.15;106217;1270;75280;-76
2021/12/07 00:43:32;;;;;;;23.10;11.50;;;;;;;2.59;80.47;100342.35;105825;1272;71941;-75
2021/12/07 00:46:03;;;;;;;27.80;12.90;;;;;;;2.59;80.41;100347.14;106075;1270;71135;-74
2021/12/07 00:48:32;;;;;;;30.20;13.40;;;;;;;2.60;80.75;100343.35;105848;1269;72501;-72
2021/12/07 00:51:01;;;;;;;24.10;12.20;;;;;;;2.59;80.52;100342.17;105785;1270;59693;-76
2021/12/07 00:53:30;;;;;;;28.50;11.30;;;;;;;2.53;80.40;100340.38;105847;1271;61085;-78
2021/12/07 00:56:01;;;;;;;28.20;12.70;;;;;;;2.49;80.76;100330.95;106168;1270;72215;-76
2021/12/07 00:58:29;;;;;;;29.30;12.60;;;;;;;2.43;81.40;100324.34;105965;1270;71204;-75
2021/12/07 01:01:08;;;;;;;28.20;12.60;;;;;;;2.49;81.26;100321.31;106154;1270;69669;-74
2021/12/07 01:03:38;;;;;;;26.30;12.20;;;;;;;2.49;81.03;100332.81;105850;1270;73973;-73
2021/12/07 01:25:21;;;;;;;23.70;11.20;;;;;;;2.46;80.72;100289.33;105978;1272;59727;-74
2021/12/07 01:27:51;;;;;;;23.90;10.70;;;;;;;2.41;80.53;100289.70;106031;1272;71731;-72
2021/12/07 01:30:37;;;;;;;26.10;11.60;;;;;;;2.36;80.73;100295.27;106013;1272;70764;-74
2021/12/07 01:41:22;;;;;;;25.60;10.90;;;;;;;2.35;80.52;100309.23;106176;1270;59177;-72
2021/12/07 02:00:10;;;;;;;25.30;11.50;;;;;;;2.31;81.14;100253.34;105995;1270;74901;-77
2021/12/07 02:02:40;;;;;;;24.30;12.20;;;;;;;2.31;80.90;100252.34;105938;1269;72850;-76
2021/12/07 02:05:10;;;;;;;27.60;12.10;;;;;;;2.31;80.89;100250.61;105968;1271;69630;-73
2021/12/07 02:07:39;;;;;;;25.20;11.70;;;;;;;2.30;81.13;100241.87;106460;1271;71739;-77
2021/12/07 02:10:14;;;;;;;25.70;11.80;;;;;;;2.28;81.54;100253.00;105794;1269;60811;-73
2021/12/07 02:12:45;;;;;;;28.10;12.50;;;;;;;2.30;81.42;100266.66;105788;1272;60621;-75
2021/12/07 02:15:20;;;;;;;29.70;12.70;;;;;;;2.30;81.34;100256.84;105960;1269;73902;-73
2021/12/07 02:17:49;;;;;;;27.30;12.40;;;;;;;2.31;81.29;100257.49;106059;1272;73674;-74
2021/12/07 02:20:19;;;;;;;28.50;11.50;;;;;;;2.33;81.31;100265.48;105938;1272;69154;-73
2021/12/07 02:22:48;;;;;;;26.90;12.60;;;;;;;2.34;81.68;100259.27;105961;1272;72035;-76
2021/12/07 02:25:19;;;;;;;34.90;15.10;;;;;;;2.29;82.11;100257.77;105935;1272;59666;-72
2021/12/07 02:27:49;;;;;;;26.60;13.00;;;;;;;2.23;82.67;100259.59;105983;1271;60781;-75
2021/12/07 02:30:21;;;;;;;36.60;14.50;;;;;;;2.26;82.32;100256.86;106014;1269;75584;-72
2021/12/07 02:32:52;;;;;;;33.60;13.20;;;;;;;2.30;82.23;100250.48;105995;1272;72328;-77
2021/12/07 02:35:26;;;;;;;26.10;11.50;;;;;;;2.29;82.36;100248.46;105838;1272;69167;-74
2021/12/07 02:37:58;;;;;;;30.90;13.10;;;;;;;2.32;82.11;100249.54;106055;1269;73728;-76
2021/12/07 02:40:29;;;;;;;32.00;13.50;;;;;;;2.34;82.02;100245.33;105881;1271;60309;-75
2021/12/07 02:42:58;;;;;;;32.70;14.60;;;;;;;2.32;82.11;100251.94;105825;1271;61269;-73
2021/12/07 02:45:27;;;;;;;31.00;12.70;;;;;;;2.29;82.43;100255.16;106078;1267;74086;-74
2021/12/07 02:47:57;;;;;;;36.60;15.80;;;;;;;2.35;82.31;100250.81;105895;1272;70455;-76
2021/12/07 02:50:26;;;;;;;29.10;14.30;;;;;;;2.30;82.71;100251.52;106138;1269;66976;-72
2021/12/07 02:52:54;;;;;;;34.80;15.10;;;;;;;2.29;82.72;100249.00;105984;1272;74245;-73
2021/12/07 02:55:24;;;;;;;29.50;13.20;;;;;;;2.27;82.80;100259.27;106034;1269;61753;-73
2021/12/07 02:57:53;;;;;;;29.70;11.70;;;;;;;2.29;83.13;100260.85;106028;1269;60940;-73
2021/12/07 03:00:30;;;;;;;34.10;13.60;;;;;;;2.31;83.15;100253.73;105859;1272;75032;-73
2021/12/07 03:03:05;;;;;;;35.10;14.30;;;;;;;2.41;82.39;100249.50;106080;1271;71393;-73
2021/12/07 03:05:40;;;;;;;29.50;12.40;;;;;;;2.44;81.90;100244.54;105895;1269;68353;-74
2021/12/07 03:27:39;;;;;;;25.90;11.70;;;;;;;2.48;82.34;100284.57;106020;1271;59921;-73
2021/12/07 03:30:09;;;;;;;23.20;11.40;;;;;;;2.52;82.07;100271.52;106049;1269;59731;-75
2021/12/07 03:32:39;;;;;;;28.20;12.90;;;;;;;2.49;81.73;100255.27;105861;1272;73840;-76
2021/12/07 03:35:08;;;;;;;29.50;12.20;;;;;;;2.47;81.84;100253.70;106075;1269;73087;-76
2021/12/07 03:37:37;;;;;;;29.50;13.20;;;;;;;2.40;82.04;100246.44;105796;1271;70614;-75
2021/12/07 03:40:09;;;;;;;21.30;9.60;;;;;;;2.48;82.05;100250.04;105945;1271;74983;-76
2021/12/07 03:42:38;;;;;;;26.90;13.00;;;;;;;2.46;81.77;100248.73;105932;1269;60217;-77
2021/12/07 03:45:10;;;;;;;29.50;11.40;;;;;;;2.40;81.81;100258.82;105756;1271;58963;-75
2021/12/07 03:47:39;;;;;;;25.70;12.60;;;;;;;2.38;82.05;100264.56;105803;1272;74601;-74
2021/12/07 03:50:09;;;;;;;29.00;13.20;;;;;;;2.39;82.08;100259.73;105875;1269;72047;-72
2021/12/07 03:52:38;;;;;;;17.50;9.60;;;;;;;2.43;81.97;100256.11;105756;1271;69517;-76
2021/12/07 03:55:08;;;;;;;23.10;12.80;;;;;;;2.30;82.28;100259.44;105899;1269;71448;-76
2021/12/07 03:57:37;;;;;;;16.40;7.70;;;;;;;2.34;81.43;100255.29;105850;1272;59722;-74
2021/12/07 04:00:13;;;;;;;23.30;11.90;;;;;;;2.40;81.20;100258.10;105726;1269;59960;-75
2021/12/07 04:02:42;;;;;;;23.80;11.90;;;;;;;2.39;81.40;100249.20;105900;1269;71751;-75
2021/12/07 04:05:17;;;;;;;19.70;10.30;;;;;;;2.42;81.28;100242.41;105793;1272;72295;-75
2021/12/07 04:07:48;;;;;;;15.20;7.90;;;;;;;2.43;81.18;100245.27;106016;1269;70338;-73
2021/12/07 04:10:19;;;;;;;17.40;9.30;;;;;;;2.42;80.63;100243.94;105606;1271;74732;-74
2021/12/07 04:12:48;;;;;;;18.90;10.30;;;;;;;2.40;80.75;100242.33;106068;1269;60255;-74
2021/12/07 04:15:18;;;;;;;16.10;9.00;;;;;;;2.38;80.85;100246.17;105735;1271;60457;-73
2021/12/07 04:17:47;;;;;;;19.30;10.60;;;;;;;2.36;80.61;100252.64;105860;1271;72021;-72
2021/12/07 04:20:17;;;;;;;18.20;10.00;;;;;;;2.35;80.77;100246.85;105940;1272;71715;-71
2021/12/07 04:22:46;;;;;;;12.30;6.60;;;;;;;2.33;80.68;100239.52;105545;1272;68826;-73
2021/12/07 04:25:16;;;;;;;19.60;10.80;;;;;;;2.34;80.82;100234.68;105699;1269;72186;-72
2021/12/07 04:27:45;;;;;;;19.20;10.50;;;;;;;2.33;80.88;100237.28;105904;1270;60344;-72
2021/12/07 04:30:42;;;;;;;21.40;10.60;;;;;;;2.32;81.24;100240.46;105904;1271;59172;-70
2021/12/07 04:33:12;;;;;;;19.30;10.30;;;;;;;2.22;81.80;100241.07;105889;1270;72902;-74
2021/12/07 04:35:46;;;;;;;19.00;10.00;;;;;;;2.12;81.99;100236.53;105901;1266;72012;-71
2021/12/07 04:38:15;;;;;;;19.70;11.00;;;;;;;2.04;82.47;100237.59;104279;1266;2131569;-72
2021/12/07 04:40:44;;;;;;;20.60;10.40;;;;;;;2.00;83.03;100238.29;105953;1267;72391;-74
2021/12/07 04:43:13;;;;;;;19.20;10.50;;;;;;;1.94;83.63;100243.55;105775;1269;59804;-69
2021/12/07 04:59:08;;;;;;;22.00;11.10;;;;;;;1.86;83.81;100257.44;105917;1269;59878;-73
2021/12/07 05:01:37;;;;;;;20.30;11.50;;;;;;;1.81;84.36;100258.67;106033;1270;60613;-77
2021/12/07 05:04:15;;;;;;;21.70;11.10;;;;;;;1.80;84.40;100257.52;106164;1266;73002;-78
2021/12/07 05:06:50;;;;;;;14.00;7.10;;;;;;;1.86;84.80;100245.58;105968;1270;72371;-72
2021/12/07 05:14:36;;;;;;;21.90;11.10;;;;;;;1.94;84.65;100240.44;106094;1269;60305;-72
2021/12/07 05:17:43;;;;;;;19.10;10.40;;;;;;;1.91;84.80;100237.16;105916;1269;59564;-73
2021/12/07 05:37:39;;;;;;;21.60;10.70;;;;;;;1.89;84.56;100257.66;105946;1269;60377;-68
2021/12/07 05:40:33;;;;;;;22.20;11.80;;;;;;;1.79;85.03;100243.83;106144;1266;71625;-70
2021/12/07 05:43:03;;;;;;;23.40;12.90;;;;;;;1.82;84.93;100246.44;106126;1270;68773;-72
2021/12/07 05:45:36;;;;;;;20.10;10.30;;;;;;;1.83;84.88;100252.07;106111;1269;74091;-69
2021/12/07 05:48:06;;;;;;;21.20;10.80;;;;;;;1.80;85.23;100249.45;106337;1266;61430;-70
2021/12/07 05:50:37;;;;;;;22.60;12.50;;;;;;;1.77;85.42;100241.17;106051;1269;61085;-72
2021/12/07 05:53:07;;;;;;;21.20;11.90;;;;;;;1.80;85.16;100234.35;106005;1270;74292;-73
2021/12/07 05:55:36;;;;;;;23.00;11.70;;;;;;;1.79;85.33;100222.36;105882;1269;71317;-74
2021/12/07 05:58:08;;;;;;;21.50;11.50;;;;;;;1.77;85.44;100219.20;105844;1269;71281;-71
2021/12/07 06:00:37;;;;;;;21.30;12.20;;;;;;;1.76;84.99;100217.89;106049;1269;73928;-70
2021/12/07 06:03:07;;;;;;;22.80;12.10;;;;;;;1.71;85.62;100214.86;106064;1266;60894;-70
2021/12/07 06:05:38;;;;;;;19.80;11.00;;;;;;;1.68;86.34;100208.27;105962;1269;62282;-69
2021/12/07 06:08:07;;;;;;;20.20;11.00;;;;;;;1.80;85.83;100219.08;108183;1269;75106;-71
2021/12/07 06:10:35;;;;;;;20.50;12.00;;;;;;;1.81;85.79;100218.15;106911;1272;73238;-68
2021/12/07 06:13:05;;;;;;;20.00;11.70;;;;;;;1.76;85.78;100218.55;105717;1269;68369;-67
2021/12/07 06:15:36;;;;;;;20.90;11.50;;;;;;;1.79;85.54;100223.58;108046;1268;74003;-69
2021/12/07 06:18:05;;;;;;;18.50;10.80;;;;;;;1.84;85.35;100239.99;106006;1266;62378;-69
2021/12/07 06:20:34;;;;;;;19.60;11.50;;;;;;;1.84;85.15;100231.26;106112;1269;61510;-68
2021/12/07 06:23:14;;;;;;;22.10;12.00;;;;;;;1.84;85.29;100219.59;106056;1266;75504;-69
2021/12/07 06:25:44;;;;;;;18.40;10.20;;;;;;;1.82;85.05;100221.04;105946;1271;70928;-70
2021/12/07 06:28:13;;;;;;;20.40;9.80;;;;;;;1.83;84.82;100223.73;105948;1270;67814;-67
2021/12/07 06:30:43;;;;;;;23.90;13.00;;;;;;;1.80;84.98;100214.92;106011;1268;74452;-68
2021/12/07 06:33:13;;;;;;;22.70;12.40;;;;;;;1.89;85.40;100209.76;106018;1269;62320;-68
2021/12/07 06:35:42;;;;;;;21.70;11.20;;;;;;;1.89;85.16;100208.23;105859;1269;60635;-69
2021/12/07 06:38:11;;;;;;;21.80;12.10;;;;;;;1.86;84.83;100211.42;105743;1266;73542;-71
2021/12/07 06:40:40;;;;;;;24.40;13.20;;;;;;;1.84;84.85;100223.36;105951;1270;70748;-69
2021/12/07 06:43:09;;;;;;;21.70;10.50;;;;;;;1.76;85.52;100224.03;106050;1266;68645;-70
2021/12/07 06:45:38;;;;;;;20.10;12.70;;;;;;;1.81;85.50;100228.97;105922;1269;71626;-70
2021/12/07 06:48:07;;;;;;;19.70;11.30;;;;;;;1.83;85.44;100225.98;106028;1266;60604;-70
2021/12/07 06:50:36;;;;;;;22.70;12.70;;;;;;;1.85;84.92;100225.68;106733;1266;59499;-70
2021/12/07 06:53:05;;;;;;;18.90;11.00;;;;;;;1.82;85.40;100224.96;105927;1270;73501;-70
2021/12/07 06:55:35;;;;;;;24.10;12.70;;;;;;;1.84;85.35;100226.98;106011;1271;71796;-67
2021/12/07 06:58:04;;;;;;;22.50;13.30;;;;;;;1.88;85.13;100222.34;106020;1269;70150;-70
2021/12/07 07:00:33;;;;;;;22.60;12.80;;;;;;;1.88;84.80;100220.77;106062;1268;74544;-70
2021/12/07 07:03:02;;;;;;;13.70;9.10;;;;;;;1.89;84.92;100230.39;105965;1270;59551;-71
2021/12/07 07:05:31;;;;;;;18.70;11.20;;;;;;;1.83;84.67;100236.96;106190;1265;59474;-71
2021/12/07 07:08:01;;;;;;;20.60;11.40;;;;;;;1.86;84.96;100239.89;106200;1266;72551;-69
2021/12/07 07:10:30;;;;;;;17.20;10.90;;;;;;;1.90;84.96;100240.96;106236;1269;71001;-71
2021/12/07 07:12:59;;;;;;;22.10;10.90;;;;;;;1.93;84.81;100240.82;106165;1266;68985;-70
2021/12/07 07:15:28;;;;;;;22.60;12.40;;;;;;;1.92;84.66;100239.48;106061;1265;71521;-69
2021/12/07 07:17:57;;;;;;;20.90;12.10;;;;;;;1.92;84.86;100242.05;107555;1276;60411;-69
2021/12/07 07:20:26;;;;;;;20.60;12.30;;;;;;;1.96;85.09;100240.68;107585;1270;60459;-70
2021/12/07 07:22:55;;;;;;;20.50;12.30;;;;;;;2.01;85.17;100236.35;107550;1272;74719;-68
2021/12/07 07:25:23;;;;;;;27.60;13.30;;;;;;;2.00;84.97;100238.43;108169;1266;72487;-68
2021/12/07 07:27:52;;;;;;;23.80;12.50;;;;;;;1.99;85.01;100244.17;107525;1266;68811;-71
2021/12/07 07:30:21;;;;;;;22.70;12.60;;;;;;;1.97;85.17;100233.95;105902;1265;72117;-66
2021/12/07 07:32:50;;;;;;;22.60;12.00;;;;;;;2.03;84.87;100239.71;105770;1266;60308;-70
2021/12/07 07:35:19;;;;;;;18.30;10.10;;;;;;;1.99;84.94;100236.28;105962;1269;58863;-70
2021/12/07 07:37:49;;;;;;;17.20;8.60;;;;;;;1.98;84.78;100242.30;105800;1269;74196;-71
2021/12/07 07:40:19;;;;;;;14.80;7.80;;;;;;;1.95;84.86;100237.67;105884;1266;72764;-72
2021/12/07 07:42:48;;;;;;;23.60;11.00;;;;;;;1.95;84.82;100240.70;105870;1270;69131;-70
2021/12/07 07:46:03;;;;;;;24.20;13.20;;;;;;;1.93;84.93;100245.10;105725;1270;74292;-71
2021/12/07 07:48:32;;;;;;;15.00;8.60;;;;;;;1.92;85.10;100249.30;105727;1269;61385;-72
2021/12/07 07:51:02;;;;;;;21.80;10.40;;;;;;;1.90;84.74;100247.14;105992;1266;59992;-68
2021/12/07 07:53:31;;;;;;;21.40;12.10;;;;;;;1.92;84.76;100246.52;105776;1271;73495;-66
2021/12/07 07:56:02;;;;;;;21.20;11.60;;;;;;;1.85;84.89;100245.47;105873;1266;72766;-72
2021/12/07 07:58:31;;;;;;;16.60;9.30;;;;;;;1.90;84.83;100255.91;105842;1269;70602;-70
2021/12/07 08:01:01;;;;;;;21.70;12.70;;;;;;;1.91;84.76;100265.31;105954;1266;72981;-68
2021/12/07 08:03:30;;;;;;;24.40;12.80;;;;;;;1.90;84.86;100261.92;105931;1269;60184;-67
2021/12/07 08:05:59;;;;;;;20.30;10.00;;;;;;;1.86;85.21;100268.08;105859;1268;61720;-68
2021/12/07 08:08:28;;;;;;;21.50;11.60;;;;;;;1.92;84.57;100269.75;105785;1270;73126;-69
2021/12/07 08:10:57;;;;;;;21.50;11.60;;;;;;;1.89;84.79;100271.40;105970;1266;73323;-70
2021/12/07 08:13:26;;;;;;;21.40;11.10;;;;;;;1.88;84.90;100272.13;105896;1266;70125;-70
2021/12/07 08:15:55;;;;;;;19.00;10.80;;;;;;;1.89;84.69;100278.09;105918;1266;72365;-72
2021/12/07 08:18:24;;;;;;;19.80;9.60;;;;;;;1.90;84.67;100277.52;105952;1266;59941;-68
2021/12/07 08:20:53;;;;;;;18.40;9.80;;;;;;;1.89;84.41;100267.79;105941;1266;60103;-70
2021/12/07 08:23:22;;;;;;;16.50;9.70;;;;;;;1.91;84.53;100267.88;106080;1266;72506;-71
2021/12/07 08:25:50;;;;;;;18.90;10.40;;;;;;;1.81;84.87;100264.02;105966;1269;72646;-71
2021/12/07 08:28:19;;;;;;;17.70;10.70;;;;;;;1.88;84.56;100262.85;106039;1269;70610;-71
2021/12/07 08:30:49;;;;;;;17.10;9.50;;;;;;;1.84;84.63;100260.77;106091;1269;74466;-70
2021/12/07 08:33:19;;;;;;;18.50;10.00;;;;;;;1.88;84.27;100251.84;106012;1269;59533;-68
2021/12/07 08:35:48;;;;;;;20.90;11.60;;;;;;;1.86;84.51;100253.31;106034;1269;61773;-70
2021/12/07 08:38:17;;;;;;;19.60;9.80;;;;;;;1.82;85.04;100256.39;106031;1268;75457;-76
2021/12/07 08:40:53;;;;;;;18.60;10.60;;;;;;;1.83;84.90;100257.21;105890;1269;70115;-71
2021/12/07 08:43:28;;;;;;;18.80;10.40;;;;;;;1.79;85.05;100251.88;106051;1270;68612;-70
2021/12/07 08:45:59;;;;;;;14.90;8.10;;;;;;;1.81;85.07;100248.91;105968;1268;71976;-72
2021/12/07 08:48:28;;;;;;;14.20;8.60;;;;;;;1.80;85.32;100252.02;106003;1271;60506;-68
2021/12/07 08:50:59;;;;;;;15.20;8.00;;;;;;;1.84;84.89;100252.73;105957;1269;59773;-70
2021/12/07 08:53:28;;;;;;;20.90;9.80;;;;;;;1.71;85.77;100244.02;105906;1270;74357;-68
2021/12/07 09:01:34;;;;;;;14.50;8.20;;;;;;;1.78;85.08;100214.69;105748;1269;73282;-72
2021/12/07 09:04:04;;;;;;;15.80;9.60;;;;;;;1.71;85.25;100201.63;105856;1268;60127;-68
2021/12/07 09:06:32;;;;;;;14.90;8.40;;;;;;;1.76;85.27;100198.63;105925;1269;60457;-70
2021/12/07 09:09:01;;;;;;;14.60;8.90;;;;;;;1.80;84.91;100205.84;105861;1269;73690;-71
2021/12/07 09:11:30;;;;;;;17.80;9.40;;;;;;;1.81;84.96;100206.15;105899;1268;70778;-71
2021/12/07 09:13:59;;;;;;;16.10;9.30;;;;;;;1.80;85.10;100212.71;105900;1268;68743;-73
2021/12/07 09:16:28;;;;;;;10.90;6.40;;;;;;;1.79;85.23;100209.13;105902;1268;73608;-71
2021/12/07 09:18:57;;;;;;;13.30;8.00;;;;;;;1.86;84.74;100208.68;105996;1269;60895;-72
2021/12/07 09:21:25;;;;;;;14.90;8.30;;;;;;;1.84;84.50;100202.58;105988;1269;59794;-64
2021/12/07 09:23:54;;;;;;;12.60;6.90;;;;;;;1.83;85.23;100205.71;106176;1268;73363;-71
2021/12/07 09:26:23;;;;;;;14.40;7.70;;;;;;;1.89;84.88;100211.84;105941;1270;70007;-71
2021/12/07 09:28:52;;;;;;;13.40;7.90;;;;;;;1.88;84.92;100213.71;106010;1269;69556;-84
2021/12/07 09:31:22;;;;;;;9.80;5.50;;;;;;;2.00;84.94;100214.75;106000;1269;73009;-72
2021/12/07 09:33:54;;;;;;;12.80;7.70;;;;;;;1.97;84.88;100214.73;105990;1268;59561;-70
2021/12/07 09:36:24;;;;;;;13.90;7.80;;;;;;;1.91;84.65;100216.71;106033;1269;60958;-70
2021/12/07 09:38:56;;;;;;;15.90;8.40;;;;;;;1.95;84.77;100215.66;105979;1268;74274;-71
2021/12/07 09:41:25;;;;;;;12.30;8.10;;;;;;;1.94;84.48;100203.33;106010;1271;70808;-69
2021/12/07 09:43:54;;;;;;;13.30;7.80;;;;;;;1.87;84.18;100195.44;106040;1268;70617;-67
2021/12/07 09:46:23;;;;;;;14.40;7.80;;;;;;;1.83;83.94;100179.46;105990;1269;73541;-68
2021/12/07 09:48:53;;;;;;;11.80;6.50;;;;;;;1.80;84.14;100174.41;105922;1268;62787;-69
2021/12/07 09:51:23;;;;;;;13.20;7.80;;;;;;;1.81;84.18;100177.12;106048;1269;59751;-71
2021/12/07 09:53:54;;;;;;;11.40;7.20;;;;;;;1.79;84.43;100176.55;106037;1269;75594;-70
2021/12/07 09:56:23;;;;;;;11.70;7.20;;;;;;;1.75;84.22;100170.00;105948;1271;71998;-71
2021/12/07 09:58:54;;;;;;;11.40;5.80;;;;;;;1.81;84.24;100162.85;106054;1268;67605;-69
2021/12/07 10:01:24;;;;;;;10.50;6.60;;;;;;;1.84;84.28;100165.33;106066;1268;72021;-69
2021/12/07 10:03:53;;;;;;;12.80;8.20;;;;;;;1.80;83.98;100170.15;106111;1268;60786;-70
2021/12/07 10:06:22;;;;;;;13.00;7.90;;;;;;;1.77;83.78;100166.68;106026;1268;61798;-71
2021/12/07 10:08:51;;;;;;;11.70;6.80;;;;;;;1.72;84.04;100163.62;105998;1269;73337;-71
2021/12/07 10:11:20;;;;;;;10.40;6.50;;;;;;;1.79;84.02;100168.65;106030;1266;71287;-75
2021/12/07 10:13:51;;;;;;;9.10;6.20;;;;;;;1.77;84.07;100167.54;106164;1269;70218;-69
2021/12/07 10:16:21;;;;;;;10.60;6.30;;;;;;;1.73;84.25;100177.14;106052;1268;74421;-75
2021/12/07 10:18:50;;;;;;;7.90;5.70;;;;;;;1.79;83.76;100173.77;106131;1269;62088;-71
2021/12/07 10:21:29;;;;;;;8.60;6.30;;;;;;;1.77;83.82;100177.33;105769;1269;60592;-71
2021/12/07 10:24:07;;;;;;;9.80;6.50;;;;;;;1.76;84.04;100171.52;105882;1269;74347;-71
2021/12/07 10:26:43;;;;;;;10.20;5.70;;;;;;;1.73;83.62;100171.96;105806;1269;73877;-71
2021/12/07 10:29:16;;;;;;;9.40;5.50;;;;;;;1.70;83.96;100171.78;105751;1269;69913;-70
2021/12/07 10:32:00;;;;;;;9.60;6.00;;;;;;;1.78;83.71;100175.55;105732;1268;72935;-71
2021/12/07 10:34:36;;;;;;;11.50;6.70;;;;;;;1.76;83.84;100185.23;105812;1268;61431;-70
2021/12/07 10:37:08;;;;;;;9.50;5.80;;;;;;;1.77;83.87;100179.86;105771;1268;61275;-70
2021/12/07 10:39:44;;;;;;;11.00;6.80;;;;;;;1.72;84.14;100173.07;105815;1268;72857;-71
2021/12/07 10:42:22;;;;;;;10.20;6.30;;;;;;;1.75;83.99;100178.60;105693;1267;71526;-70
2021/12/07 10:45:10;;;;;;;9.10;6.00;;;;;;;1.81;83.65;100175.40;105840;1269;72081;-68
2021/12/07 10:47:38;;;;;;;10.20;6.10;;;;;;;1.73;83.54;100168.02;105837;1269;74316;-73
2021/12/07 10:50:09;;;;;;;11.60;6.60;;;;;;;1.72;83.41;100170.64;105641;1270;59474;-67
2021/12/07 10:52:42;;;;;;;11.80;6.80;;;;;;;1.70;83.69;100170.05;105841;1268;58996;-69
2021/12/07 10:55:23;;;;;;;11.60;6.90;;;;;;;1.71;84.08;100170.70;105809;1268;72517;-70
2021/12/07 10:58:04;;;;;;;10.50;6.80;;;;;;;1.80;83.74;100166.52;105789;1269;73667;-72
2021/12/07 11:00:44;;;;;;;10.80;5.40;;;;;;;1.72;83.97;100164.15;105691;1268;70598;-72
2021/12/07 11:03:22;;;;;;;11.70;7.00;;;;;;;1.67;83.98;100166.57;105754;1269;72687;-69
2021/12/07 11:05:54;;;;;;;12.10;6.90;;;;;;;1.60;84.36;100171.35;105780;1269;58907;-71
2021/12/07 11:08:29;;;;;;;9.60;6.90;;;;;;;1.59;84.57;100169.34;105789;1269;59104;-71
2021/12/07 11:10:58;;;;;;;11.30;7.10;;;;;;;1.62;84.55;100168.02;105830;1268;75477;-68
2021/12/07 11:13:35;;;;;;;10.40;5.80;;;;;;;1.66;84.84;100169.23;105713;1268;73022;-69
2021/12/07 11:16:13;;;;;;;8.10;5.10;;;;;;;1.68;84.40;100161.76;105829;1269;68820;-73
2021/12/07 11:18:48;;;;;;;12.10;6.30;;;;;;;1.67;84.14;100158.02;105662;1271;72994;-70
2021/12/07 11:21:19;;;;;;;11.30;7.40;;;;;;;1.63;83.95;100160.60;105863;1266;59714;-71
2021/12/07 11:23:52;;;;;;;11.00;7.20;;;;;;;1.56;84.43;100167.07;105799;1268;61351;-73
2021/12/07 11:31:50;;;;;;;10.20;5.90;;;;;;;1.59;84.45;100168.31;105847;1268;71598;-70
2021/12/07 11:34:28;;;;;;;8.60;5.30;;;;;;;1.59;84.37;100154.25;105949;1268;70848;-72
2021/12/07 11:36:59;;;;;;;9.10;5.60;;;;;;;1.52;84.72;100150.25;105857;1268;62765;-71
2021/12/07 11:39:47;;;;;;;8.40;5.70;;;;;;;1.49;84.80;100152.48;105861;1269;61542;-71
2021/12/07 11:42:15;;;;;;;8.70;5.40;;;;;;;1.44;84.85;100142.70;105926;1268;75214;-70
2021/12/07 11:45:03;;;;;;;9.20;5.60;;;;;;;1.41;84.94;100137.52;105773;1269;71144;-69
2021/12/07 11:47:38;;;;;;;6.80;5.00;;;;;;;1.47;84.82;100136.07;105887;1269;68572;-69
2021/12/07 11:50:26;;;;;;;6.60;4.20;;;;;;;1.42;84.68;100127.86;105929;1268;73027;-67
2021/12/07 11:52:58;;;;;;;11.60;6.00;;;;;;;1.43;84.48;100134.02;105948;1270;60551;-69
2021/12/07 11:55:28;;;;;;;8.80;5.70;;;;;;;1.42;84.87;100130.63;105947;1268;59565;-77
2021/12/07 11:57:57;;;;;;;7.10;4.70;;;;;;;1.47;84.40;100132.80;105998;1270;73669;-71
2021/12/07 12:00:34;;;;;;;10.60;5.60;;;;;;;1.42;84.17;100134.05;105951;1269;72325;-70
2021/12/07 12:03:09;;;;;;;8.00;5.10;;;;;;;1.47;84.66;100132.11;105901;1268;70951;-72
2021/12/07 12:05:40;;;;;;;7.20;4.80;;;;;;;1.49;84.69;100127.05;105916;1269;71859;-69
2021/12/07 12:08:09;;;;;;;8.40;4.80;;;;;;;1.51;84.61;100122.17;105730;1271;60602;-72
2021/12/07 12:10:54;;;;;;;8.80;4.80;;;;;;;1.42;84.67;100125.16;105988;1271;60752;-71
2021/12/07 12:13:42;;;;;;;6.80;4.60;;;;;;;1.45;84.37;100126.04;105761;1269;75093;-71
2021/12/07 12:16:28;;;;;;;7.50;5.00;;;;;;;1.41;84.55;100126.23;105903;1268;73723;-69
2021/12/07 12:19:32;;;;;;;9.20;5.70;;;;;;;1.37;84.94;100129.32;105971;1269;68358;-69
2021/12/07 12:22:11;;;;;;;;;;;;;;;1.37;84.93;100121.91;105940;1268;72795;-71
2021/12/07 12:24:45;;;;;;;9.20;5.60;;;;;;;1.40;84.75;100132.27;105923;1269;60493;-69
2021/12/07 12:27:19;;;;;;;7.00;4.90;;;;;;;1.39;85.11;100137.14;106070;1266;59040;-71
2021/12/07 12:29:52;;;;;;;10.70;5.60;;;;;;;1.32;85.34;100145.96;105937;1266;72599;-71
2021/12/07 12:32:36;;;;;;;8.10;5.10;;;;;;;1.40;85.36;100148.88;105926;1269;70508;-70
2021/12/07 12:35:08;;;;;;;6.50;4.70;;;;;;;1.39;85.07;100146.54;105786;1268;69603;-71
2021/12/07 12:37:37;;;;;;;9.80;6.40;;;;;;;1.43;84.91;100144.65;105960;1266;74011;-71
2021/12/07 12:40:19;;;;;;;10.00;5.90;;;;;;;1.34;85.28;100149.67;105471;1268;503026;-71
2021/12/07 12:42:52;;;;;;;8.30;5.30;;;;;;;1.40;85.31;100154.58;105895;1268;59508;-71
2021/12/07 12:45:28;;;;;;;;;;;;;;;1.39;85.09;100148.07;105915;1269;72412;-71
2021/12/07 12:48:02;;;;;;;9.70;5.70;;;;;;;1.33;85.09;100142.18;105873;1269;72876;-72
2021/12/07 12:50:52;;;;;;;9.80;5.80;;;;;;;1.35;84.95;100144.47;105860;1269;69000;-69
2021/12/07 12:53:48;;;;;;;7.40;4.80;;;;;;;1.34;84.70;100158.78;106010;1266;73985;-69
2021/12/07 12:56:19;;;;;;;12.90;7.50;;;;;;;1.32;84.90;100165.52;106025;1266;61784;-71
2021/12/07 12:58:56;;;;;;;11.10;7.30;;;;;;;1.33;85.27;100163.09;105897;1269;61507;-72
2021/12/07 13:01:39;;;;;;;9.30;6.00;;;;;;;1.32;85.20;100148.88;105766;1271;74345;-70
2021/12/07 13:04:24;;;;;;;9.90;6.60;;;;;;;1.29;85.04;100147.83;105886;1266;72342;-70
2021/12/07 13:07:05;;;;;;;7.30;4.30;;;;;;;1.29;85.25;100155.70;106045;1266;69157;-69
2021/12/07 13:09:44;;;;;;;7.60;5.30;;;;;;;1.27;85.21;100167.13;106027;1268;72408;-72
2021/12/07 13:12:18;;;;;;;9.30;6.10;;;;;;;1.29;85.10;100173.73;105984;1266;59092;-70
2021/12/07 13:14:49;;;;;;;;;;;;;;;1.27;85.20;100171.44;105870;1269;61220;-72
2021/12/07 13:17:24;;;;;;;8.40;5.30;;;;;;;1.23;85.42;100168.86;105979;1266;75699;-72
2021/12/07 13:20:10;;;;;;;8.80;6.50;;;;;;;1.29;85.23;100179.23;105976;1270;69483;-71
2021/12/07 13:22:38;;;;;;;10.00;6.70;;;;;;;1.25;85.47;100187.45;105891;1266;71607;-67
2021/12/07 13:25:20;;;;;;;13.60;5.60;;;;;;;1.26;85.85;100192.20;105912;1269;72923;-69
2021/12/07 13:28:22;;;;;;;10.30;5.90;;;;;;;1.20;85.74;100196.77;105899;1268;59723;-70